createdAt,value
2019-03-08T00:01:59.926Z,6.93
2019-03-08T00:04:30.592Z,7.00
2019-03-08T00:07:01.155Z,7.87
2019-03-08T00:09:31.669Z,7.70
2019-03-08T00:12:02.614Z,8.40
2019-03-08T00:14:33.588Z,9.30
2019-03-08T00:17:04.377Z,9.70
2019-03-08T00:19:34.968Z,9.20
2019-03-08T00:22:06.791Z,9.20
2019-03-08T00:24:37.546Z,8.27
2019-03-08T00:27:08.345Z,8.70
2019-03-08T00:29:39.265Z,9.30
2019-03-08T00:32:11.179Z,8.67
2019-03-08T00:34:41.924Z,8.33
2019-03-08T00:37:12.502Z,8.37
2019-03-08T00:39:43.180Z,9.10
2019-03-08T00:42:13.941Z,7.57
2019-03-08T00:44:44.642Z,8.57
2019-03-08T00:47:15.474Z,8.40
2019-03-08T00:49:46.098Z,7.83
2019-03-08T00:52:16.949Z,8.20
2019-03-08T00:54:48.886Z,8.50
2019-03-08T00:57:19.524Z,8.10
2019-03-08T00:59:50.509Z,8.87
2019-03-08T01:02:22.666Z,8.67
2019-03-08T01:04:53.284Z,9.20
2019-03-08T01:07:24.048Z,9.80
2019-03-08T01:09:55.199Z,9.93
2019-03-08T01:12:26.042Z,7.47
2019-03-08T01:14:56.442Z,8.00
2019-03-08T01:17:27.289Z,8.50
2019-03-08T01:19:59.140Z,9.37
2019-03-08T01:22:29.779Z,8.40
2019-03-08T01:25:00.783Z,11.53
2019-03-08T01:27:32.752Z,9.20
2019-03-08T01:30:05.223Z,9.13
2019-03-08T01:32:36.293Z,10.17
2019-03-08T01:35:06.927Z,10.03
2019-03-08T01:37:37.634Z,10.53
2019-03-08T01:40:10.073Z,10.57
2019-03-08T01:42:41.259Z,11.03
2019-03-08T01:45:12.932Z,11.00
2019-03-08T01:47:43.676Z,9.73
2019-03-08T01:50:14.574Z,11.30
2019-03-08T01:52:45.647Z,10.10
2019-03-08T01:55:16.336Z,9.10
2019-03-08T01:57:47.188Z,7.90
2019-03-08T02:00:18.938Z,8.37
2019-03-08T02:02:49.500Z,7.57
2019-03-08T02:05:20.716Z,7.23
2019-03-08T02:07:52.538Z,7.13
2019-03-08T02:10:23.259Z,8.60
2019-03-08T02:12:53.925Z,8.63
2019-03-08T02:15:24.731Z,12.20
2019-03-08T02:17:55.764Z,13.07
2019-03-08T02:20:26.398Z,9.53
2019-03-08T02:22:57.139Z,10.37
2019-03-08T02:25:28.010Z,11.10
2019-03-08T02:27:59.205Z,10.50
2019-03-08T02:30:30.067Z,10.03
2019-03-08T02:33:00.643Z,9.20
2019-03-08T02:35:31.395Z,9.00
2019-03-08T02:38:01.956Z,8.90
2019-03-08T02:40:34.125Z,9.07
2019-03-08T02:43:09.692Z,7.37
2019-03-08T02:45:40.407Z,8.17
2019-03-08T02:48:11.151Z,11.97
2019-03-08T02:50:42.366Z,11.70
2019-03-08T02:53:12.951Z,12.50
2019-03-08T02:55:43.524Z,10.47
2019-03-08T02:58:15.387Z,10.23
2019-03-08T03:00:46.825Z,11.13
2019-03-08T03:03:18.203Z,10.50
2019-03-08T03:05:49.174Z,11.17
2019-03-08T03:08:20.068Z,11.63
2019-03-08T03:10:51.401Z,12.13
2019-03-08T03:13:22.121Z,12.80
2019-03-08T03:15:53.494Z,19.60
2019-03-08T03:18:25.127Z,15.53
2019-03-08T03:20:56.053Z,14.63
2019-03-08T03:23:26.777Z,13.73
2019-03-08T03:25:57.408Z,12.47
2019-03-08T03:28:28.204Z,12.93
2019-03-08T03:30:59.490Z,12.50
2019-03-08T03:33:30.238Z,11.77
2019-03-08T03:36:01.036Z,13.27
2019-03-08T03:38:31.576Z,13.40
2019-03-08T03:41:02.534Z,13.17
2019-03-08T03:43:33.422Z,13.37
2019-03-08T03:46:04.102Z,14.10
2019-03-08T03:48:35.072Z,14.00
2019-03-08T03:51:05.727Z,15.10
2019-03-08T03:53:36.176Z,13.70
2019-03-08T03:56:07.110Z,12.20
2019-03-08T03:58:38.135Z,12.87
2019-03-08T04:01:39.771Z,14.40
2019-03-08T04:04:10.913Z,13.80
2019-03-08T04:06:41.734Z,13.20
2019-03-08T04:09:15.649Z,14.30
2019-03-08T04:11:46.338Z,12.73
2019-03-08T04:14:17.179Z,15.00
2019-03-08T04:16:47.929Z,15.47
2019-03-08T04:19:19.276Z,19.13
2019-03-08T04:21:50.036Z,18.37
2019-03-08T04:24:21.161Z,16.63
2019-03-08T04:26:53.159Z,16.57
2019-03-08T04:29:26.394Z,24.40
2019-03-08T04:31:57.411Z,27.47
2019-03-08T04:34:28.383Z,29.30
2019-03-08T04:36:59.310Z,25.60
2019-03-08T04:39:30.558Z,21.27
2019-03-08T04:42:01.101Z,22.00
2019-03-08T04:44:32.023Z,19.87
2019-03-08T04:47:04.346Z,20.20
2019-03-08T04:49:34.904Z,21.77
2019-03-08T04:52:06.219Z,20.87
2019-03-08T04:54:36.905Z,21.83
2019-03-08T04:57:07.531Z,19.67
2019-03-08T04:59:38.443Z,24.63
2019-03-08T05:02:09.199Z,23.30
2019-03-08T05:04:40.374Z,24.20
2019-03-08T05:07:12.634Z,24.97
2019-03-08T05:09:43.607Z,23.67
2019-03-08T05:12:14.166Z,24.23
2019-03-08T05:14:44.940Z,23.23
2019-03-08T05:17:17.691Z,20.23
2019-03-08T05:19:48.556Z,17.97
2019-03-08T05:22:19.377Z,16.80
2019-03-08T05:24:51.504Z,15.17
2019-03-08T05:27:22.166Z,15.83
2019-03-08T05:29:52.927Z,15.27
2019-03-08T05:32:23.675Z,13.27
2019-03-08T05:34:54.480Z,12.57
2019-03-08T05:37:25.225Z,11.63
2019-03-08T05:39:55.830Z,11.50
2019-03-08T05:42:26.976Z,10.80
2019-03-08T05:44:57.731Z,10.90
2019-03-08T05:47:28.512Z,10.80
2019-03-08T05:49:59.275Z,11.33
2019-03-08T05:52:30.369Z,10.90
2019-03-08T05:55:01.380Z,10.47
2019-03-08T05:57:32.215Z,11.10
2019-03-08T06:00:03.561Z,8.53
2019-03-08T06:02:34.424Z,7.67
2019-03-08T06:05:05.264Z,10.20
2019-03-08T06:07:38.779Z,9.80
2019-03-08T06:10:37.851Z,9.87
2019-03-08T06:13:08.769Z,13.40
2019-03-08T06:15:40.001Z,10.30
2019-03-08T06:18:11.816Z,10.40
2019-03-08T06:20:42.668Z,10.53
2019-03-08T06:23:13.532Z,10.80
2019-03-08T06:25:45.854Z,9.90
2019-03-08T06:28:17.910Z,10.73
2019-03-08T06:30:48.687Z,11.73
2019-03-08T06:33:19.384Z,10.73
2019-03-08T06:35:51.458Z,11.67
2019-03-08T06:38:22.194Z,11.13
2019-03-08T06:40:53.055Z,12.10
2019-03-08T06:43:24.085Z,11.37
2019-03-08T06:45:55.806Z,12.60
2019-03-08T06:48:26.613Z,11.90
2019-03-08T06:50:57.252Z,12.10
2019-03-08T06:53:27.991Z,12.80
2019-03-08T06:55:58.842Z,12.87
2019-03-08T07:01:27.648Z,12.87
2019-03-08T07:03:58.184Z,14.30
2019-03-08T07:06:29.948Z,14.23
2019-03-08T07:09:00.786Z,14.03
2019-03-08T07:11:33.186Z,14.63
2019-03-08T07:14:04.021Z,14.43
2019-03-08T07:16:35.826Z,15.40
2019-03-08T07:19:06.782Z,14.50
2019-03-08T07:21:50.070Z,16.00
2019-03-08T07:24:45.721Z,15.73
2019-03-08T07:27:35.285Z,17.13
2019-03-08T07:30:22.246Z,17.60
2019-03-08T07:33:11.689Z,16.37
2019-03-08T07:36:07.958Z,17.67
2019-03-08T07:39:10.148Z,20.40
2019-03-08T07:42:03.055Z,19.83
2019-03-08T07:44:54.456Z,21.50
2019-03-08T07:47:46.814Z,23.23
2019-03-08T07:50:39.344Z,23.80
2019-03-08T07:53:34.771Z,26.17
2019-03-08T07:56:42.971Z,26.40
2019-03-08T07:59:43.405Z,26.00
2019-03-08T08:02:33.299Z,25.10
2019-03-08T08:05:41.249Z,25.60
2019-03-08T08:08:28.227Z,24.70
2019-03-08T08:11:17.509Z,24.20
2019-03-08T08:14:04.818Z,23.63
2019-03-08T08:16:43.424Z,22.23
2019-03-08T08:19:23.790Z,21.40
2019-03-08T08:22:13.102Z,22.10
2019-03-08T08:25:17.796Z,20.40
2019-03-08T08:28:13.313Z,20.90
2019-03-08T08:31:02.287Z,22.87
2019-03-08T08:33:55.143Z,22.97
2019-03-08T08:36:43.182Z,19.00
2019-03-08T08:39:27.518Z,16.80
2019-03-08T08:42:26.405Z,13.27
2019-03-08T08:45:15.274Z,11.70
2019-03-08T08:48:04.329Z,13.93
2019-03-08T08:51:02.496Z,10.50
2019-03-08T08:53:55.150Z,9.87
2019-03-08T08:56:44.524Z,10.00
2019-03-08T08:59:40.561Z,10.87
2019-03-08T09:02:21.419Z,10.30
2019-03-08T09:05:13.983Z,10.30
2019-03-08T09:08:03.537Z,9.93
2019-03-08T09:11:08.284Z,11.10
2019-03-08T09:13:46.070Z,12.70
2019-03-08T09:16:40.682Z,14.10
2019-03-08T09:19:49.910Z,16.07
2019-03-08T09:22:34.371Z,15.90
2019-03-08T09:25:29.876Z,17.47
2019-03-08T09:28:23.863Z,18.10
2019-03-08T09:31:10.875Z,16.80
2019-03-08T09:34:03.324Z,17.50
2019-03-08T09:36:40.414Z,16.20
2019-03-08T09:39:30.146Z,15.20
2019-03-08T09:42:10.334Z,14.53
2019-03-08T09:44:58.196Z,16.37
2019-03-08T09:47:46.938Z,17.13
2019-03-08T09:50:31.007Z,15.70
2019-03-08T09:53:11.760Z,15.40
2019-03-08T09:55:48.349Z,13.60
2019-03-08T09:58:36.781Z,13.57
2019-03-08T10:01:21.562Z,13.90
2019-03-08T10:04:14.611Z,13.07
2019-03-08T10:07:10.232Z,14.57
2019-03-08T10:09:58.770Z,14.60
2019-03-08T10:12:51.347Z,14.80
2019-03-08T10:15:33.887Z,14.27
2019-03-08T10:18:26.069Z,12.37
2019-03-08T10:21:08.388Z,12.97
2019-03-08T10:23:47.332Z,12.60
2019-03-08T10:26:35.544Z,13.07
2019-03-08T10:29:23.455Z,12.20
2019-03-08T10:32:37.394Z,12.23
2019-03-08T10:35:24.124Z,13.53
2019-03-08T10:38:11.479Z,12.50
2019-03-08T10:41:03.817Z,13.17
2019-03-08T10:43:51.748Z,12.60
2019-03-08T10:46:29.780Z,13.20
2019-03-08T10:49:19.537Z,13.00
2019-03-08T10:52:05.842Z,12.80
2019-03-08T10:55:14.571Z,13.50
2019-03-08T10:57:57.727Z,14.97
2019-03-08T11:00:35.069Z,13.30
2019-03-08T11:03:17.908Z,11.80
2019-03-08T11:05:57.955Z,11.60
2019-03-08T11:08:47.319Z,11.33
2019-03-08T11:11:36.440Z,12.37
2019-03-08T11:14:17.226Z,12.50
2019-03-08T11:17:01.116Z,12.87
2019-03-08T11:19:49.461Z,12.60
2019-03-08T11:22:34.241Z,12.30
2019-03-08T11:25:34.779Z,13.53
2019-03-08T11:28:21.697Z,12.37
2019-03-08T11:31:14.215Z,13.03
2019-03-08T11:33:56.011Z,12.33
2019-03-08T11:36:49.065Z,12.93
2019-03-08T11:39:46.630Z,13.07
2019-03-08T11:42:48.303Z,12.13
2019-03-08T11:45:36.348Z,12.80
2019-03-08T11:48:25.515Z,11.30
2019-03-08T11:51:14.256Z,11.60
2019-03-08T11:54:15.521Z,10.70
2019-03-08T11:57:03.245Z,11.10
2019-03-08T11:59:50.972Z,10.93
2019-03-08T12:02:38.726Z,10.27
2019-03-08T12:05:37.104Z,11.30
2019-03-08T12:08:17.332Z,10.87
2019-03-08T12:11:02.837Z,9.73
2019-03-08T12:14:11.687Z,10.80
2019-03-08T12:17:13.221Z,10.30
2019-03-08T12:20:02.283Z,10.17
2019-03-08T12:22:40.078Z,11.70
2019-03-08T12:25:33.047Z,12.50
2019-03-08T12:28:22.433Z,13.77
2019-03-08T12:31:09.341Z,13.40
2019-03-08T12:33:57.072Z,12.87
2019-03-08T12:36:41.417Z,15.93
2019-03-08T12:39:18.473Z,14.20
2019-03-08T12:41:55.006Z,15.53
2019-03-08T12:44:47.423Z,15.60
2019-03-08T12:47:54.713Z,15.07
2019-03-08T12:50:47.268Z,16.67
2019-03-08T12:53:40.007Z,16.30
2019-03-08T12:56:41.264Z,15.23
2019-03-08T12:59:28.992Z,14.60
2019-03-08T13:02:27.720Z,15.10
2019-03-08T13:05:16.850Z,16.60
2019-03-08T13:08:09.090Z,18.03
2019-03-08T13:10:39.322Z,16.43
2019-03-08T13:13:09.580Z,18.90
2019-03-08T13:15:40.069Z,17.90
2019-03-08T13:18:10.340Z,18.60
2019-03-08T13:20:40.789Z,18.27
2019-03-08T13:23:11.210Z,18.63
2019-03-08T13:25:41.660Z,19.37
2019-03-08T13:28:11.942Z,19.10
2019-03-08T13:30:42.331Z,20.67
2019-03-08T13:33:12.711Z,20.70
2019-03-08T13:35:42.955Z,19.17
2019-03-08T13:38:13.184Z,19.07
2019-03-08T13:40:43.472Z,18.83
2019-03-08T13:43:13.642Z,19.50
2019-03-08T13:45:43.827Z,18.40
2019-03-08T13:48:14.527Z,18.17
2019-03-08T13:50:45.016Z,20.20
2019-03-08T13:53:15.433Z,17.90
2019-03-08T13:55:46.959Z,18.13
2019-03-08T13:58:17.181Z,18.87
2019-03-08T14:00:47.733Z,18.60
2019-03-08T14:03:17.947Z,15.27
2019-03-08T14:05:48.259Z,15.60
2019-03-08T14:08:18.914Z,15.13
2019-03-08T14:10:49.248Z,16.50
2019-03-08T14:13:19.842Z,15.00
2019-03-08T14:15:50.339Z,15.13
2019-03-08T14:18:20.650Z,13.20
2019-03-08T14:20:50.768Z,13.93
2019-03-08T14:23:21.547Z,14.77
2019-03-08T14:25:51.826Z,12.60
2019-03-08T14:28:22.287Z,12.97
2019-03-08T14:31:14.417Z,14.10
2019-03-08T14:33:44.734Z,13.30
2019-03-08T14:36:15.141Z,12.03
2019-03-08T14:38:45.360Z,13.63
2019-03-08T14:41:41.731Z,13.07
2019-03-08T14:44:37.551Z,14.23
2019-03-08T14:47:13.648Z,11.90
2019-03-08T14:49:44.396Z,12.30
2019-03-08T14:52:14.651Z,13.00
2019-03-08T14:54:46.614Z,11.73
2019-03-08T14:57:26.844Z,13.00
2019-03-08T14:59:53.074Z,11.60
2019-03-08T15:02:22.658Z,13.00
2019-03-08T15:04:53.193Z,15.47
2019-03-08T15:07:23.518Z,15.23
2019-03-08T15:09:54.291Z,14.00
2019-03-08T15:12:25.108Z,14.73
2019-03-08T15:14:55.711Z,15.40
2019-03-08T15:17:26.727Z,14.50
2019-03-08T15:19:57.374Z,13.30
2019-03-08T15:22:28.119Z,12.10
2019-03-08T15:24:58.903Z,12.53
2019-03-08T15:27:29.448Z,12.90
2019-03-08T15:30:00.719Z,11.70
2019-03-08T15:32:31.517Z,12.33
2019-03-08T15:35:01.985Z,13.03
2019-03-08T15:37:33.351Z,13.37
2019-03-08T15:40:03.989Z,13.70
2019-03-08T15:42:36.700Z,13.23
2019-03-08T15:45:08.848Z,12.43
2019-03-08T15:47:39.399Z,13.17
2019-03-08T15:50:12.236Z,15.17
2019-03-08T15:52:42.706Z,13.83
2019-03-08T15:55:14.030Z,13.10
2019-03-08T15:57:44.444Z,14.43
2019-03-08T16:00:18.124Z,13.37
2019-03-08T16:02:48.534Z,14.63
2019-03-08T16:05:19.593Z,13.70
2019-03-08T16:07:52.287Z,14.77
2019-03-08T16:10:42.698Z,14.40
2019-03-08T16:13:13.383Z,14.60
2019-03-08T16:15:43.916Z,14.43
2019-03-08T16:18:14.383Z,16.77
2019-03-08T16:20:45.014Z,19.80
2019-03-08T16:23:15.547Z,18.93
2019-03-08T16:25:47.861Z,19.10
2019-03-08T16:28:18.348Z,18.10
2019-03-08T16:30:52.087Z,14.97
2019-03-08T16:33:32.332Z,14.87
2019-03-08T16:36:13.314Z,14.00
2019-03-08T16:39:20.576Z,14.70
2019-03-08T16:42:07.829Z,13.70
2019-03-08T16:44:48.741Z,15.00
2019-03-08T16:47:42.547Z,13.60
2019-03-08T16:50:28.781Z,18.00
2019-03-08T16:53:17.841Z,25.17
2019-03-08T16:56:05.065Z,32.70
2019-03-08T16:58:50.965Z,28.27
2019-03-08T17:01:39.098Z,26.97
2019-03-08T17:04:40.661Z,45.37
2019-03-08T17:07:18.818Z,28.73
2019-03-08T17:10:06.931Z,27.80
2019-03-08T17:12:56.590Z,19.63
2019-03-08T17:15:51.209Z,18.40
2019-03-08T17:18:43.737Z,18.60
2019-03-08T17:21:45.300Z,26.90
2019-03-08T17:24:33.571Z,44.70
2019-03-08T17:27:13.492Z,48.83
2019-03-08T17:29:50.450Z,46.07
2019-03-08T17:32:45.376Z,56.63
2019-03-08T17:35:37.726Z,49.40
2019-03-08T17:38:36.216Z,43.40
2019-03-08T17:41:43.918Z,44.17
2019-03-08T17:44:34.006Z,43.77
2019-03-08T17:47:17.238Z,43.30
2019-03-08T17:50:24.614Z,26.07
2019-03-08T17:53:23.219Z,17.70
2019-03-08T17:56:16.888Z,14.50
2019-03-08T17:59:05.757Z,14.80
2019-03-08T18:02:01.169Z,17.60
2019-03-08T18:04:53.906Z,20.20
2019-03-08T18:07:53.233Z,20.13
2019-03-08T18:10:57.112Z,15.50
2019-03-08T18:13:40.027Z,12.50
2019-03-08T18:16:14.851Z,19.23
2019-03-08T18:19:16.110Z,30.27
2019-03-08T18:22:09.368Z,34.80
2019-03-08T18:24:51.458Z,21.63
2019-03-08T18:27:40.946Z,21.57
2019-03-08T18:30:29.690Z,21.10
2019-03-08T18:33:28.174Z,20.97
2019-03-08T18:36:17.462Z,20.57
2019-03-08T18:38:55.754Z,28.27
2019-03-08T18:41:48.008Z,14.70
2019-03-08T18:44:38.099Z,11.47
2019-03-08T18:47:39.700Z,10.70
2019-03-08T18:50:25.344Z,10.53
2019-03-08T18:53:29.870Z,10.20
2019-03-08T18:56:31.319Z,10.57
2019-03-08T18:59:26.429Z,12.13
2019-03-08T19:02:15.802Z,10.93
2019-03-08T19:05:08.042Z,11.00
2019-03-08T19:08:09.592Z,10.97
2019-03-08T19:10:56.207Z,11.10
2019-03-08T19:13:52.028Z,10.13
2019-03-08T19:16:47.134Z,11.90
2019-03-08T19:19:34.831Z,10.60
2019-03-08T19:22:26.617Z,11.10
2019-03-08T19:25:08.811Z,12.43
2019-03-08T19:27:56.535Z,12.70
2019-03-08T19:30:40.782Z,12.80
2019-03-08T19:33:35.899Z,13.50
2019-03-08T19:36:26.806Z,12.67
2019-03-08T19:39:16.079Z,16.80
2019-03-08T19:41:58.175Z,23.87
2019-03-08T19:44:54.107Z,19.93
2019-03-08T19:47:45.636Z,15.83
2019-03-08T19:50:34.823Z,13.10
2019-03-08T19:53:14.651Z,12.83
2019-03-08T19:56:04.202Z,11.90
2019-03-08T19:58:54.307Z,13.87
2019-03-08T20:01:41.825Z,13.30
2019-03-08T20:04:20.554Z,13.10
2019-03-08T20:07:09.816Z,16.60
2019-03-08T20:10:02.272Z,19.90
2019-03-08T20:12:50.433Z,15.73
2019-03-08T20:15:42.920Z,12.77
2019-03-08T20:18:29.577Z,12.23
2019-03-08T20:21:33.997Z,15.40
2019-03-08T20:24:22.753Z,15.30
2019-03-08T20:27:18.504Z,103.07
2019-03-08T20:30:02.739Z,59.50
2019-03-08T20:32:48.765Z,21.00
2019-03-08T20:38:37.306Z,12.63
2019-03-08T20:41:14.719Z,12.50
2019-03-08T20:43:53.676Z,13.40
2019-03-08T20:46:44.758Z,13.87
2019-03-08T20:49:15.272Z,13.90
2019-03-08T20:51:45.782Z,14.60
2019-03-08T20:54:16.311Z,15.07
2019-03-08T20:56:47.036Z,14.20
2019-03-08T20:59:17.381Z,13.20
2019-03-08T21:01:47.807Z,12.90
2019-03-08T21:04:18.501Z,12.20
2019-03-08T21:06:48.760Z,12.10
2019-03-08T21:09:19.277Z,14.17
2019-03-08T21:11:50.083Z,15.30
2019-03-08T21:14:22.177Z,17.33
2019-03-08T21:16:52.893Z,15.23
2019-03-08T21:19:23.908Z,15.67
2019-03-08T21:21:54.734Z,15.40
2019-03-08T21:24:25.326Z,18.10
2019-03-08T21:26:55.850Z,17.27
2019-03-08T21:29:26.732Z,18.37
2019-03-08T21:31:57.480Z,17.70
2019-03-08T21:34:28.952Z,18.03
2019-03-08T21:36:59.541Z,16.70
2019-03-08T21:39:30.111Z,16.30
2019-03-08T21:42:00.657Z,16.10
2019-03-08T21:44:31.348Z,16.30
2019-03-08T21:47:01.885Z,17.00
2019-03-08T21:49:32.820Z,20.00
2019-03-08T21:52:03.483Z,21.33
2019-03-08T21:54:33.819Z,22.40
2019-03-08T21:57:04.795Z,22.50
2019-03-08T21:59:35.519Z,20.73
2019-03-08T22:02:06.605Z,24.40
2019-03-08T22:04:50.430Z,24.37
2019-03-08T22:07:22.587Z,23.40
2019-03-08T22:10:04.657Z,23.03
2019-03-08T22:12:35.176Z,26.83
2019-03-08T22:15:06.590Z,27.30
2019-03-08T22:17:37.482Z,26.90
2019-03-08T22:20:08.201Z,26.87
2019-03-08T22:22:38.887Z,24.10
2019-03-08T22:25:10.497Z,23.60
2019-03-08T22:27:41.264Z,26.57
2019-03-08T22:30:14.645Z,29.40
2019-03-08T22:32:45.337Z,28.77
2019-03-08T22:35:15.889Z,27.73
2019-03-08T22:37:46.465Z,29.17
2019-03-08T22:40:17.176Z,27.70
2019-03-08T22:42:48.074Z,28.77
2019-03-08T22:45:18.612Z,28.40
2019-03-08T22:47:49.360Z,29.40
2019-03-08T22:50:20.565Z,28.90
2019-03-08T22:52:51.297Z,29.57
2019-03-08T22:55:21.875Z,30.27
2019-03-08T22:57:52.575Z,28.33
2019-03-08T23:00:59.838Z,30.20
2019-03-08T23:03:30.829Z,31.93
2019-03-08T23:06:03.780Z,29.07
2019-03-08T23:08:35.010Z,27.30
2019-03-08T23:11:05.908Z,32.47
2019-03-08T23:13:36.598Z,32.93
2019-03-08T23:16:07.417Z,30.30
2019-03-08T23:18:37.960Z,30.93
2019-03-08T23:21:09.881Z,30.13
2019-03-08T23:23:40.179Z,32.40
2019-03-08T23:26:11.523Z,30.90
2019-03-08T23:28:55.851Z,32.20
2019-03-08T23:31:30.585Z,33.60
2019-03-08T23:34:02.791Z,33.73
2019-03-08T23:36:34.204Z,30.83
2019-03-08T23:39:06.913Z,32.10
2019-03-08T23:41:37.578Z,30.33
2019-03-08T23:44:08.253Z,29.80
2019-03-08T23:46:40.016Z,30.37
2019-03-08T23:49:10.803Z,29.00
2019-03-08T23:51:41.952Z,27.83
2019-03-08T23:54:12.909Z,27.83
2019-03-08T23:56:43.814Z,30.07
2019-03-08T23:59:14.650Z,27.40
